createdAt,value
2022-11-01T00:02:14.164Z,12.57
2022-11-01T00:04:43.727Z,12.85
2022-11-01T00:07:13.506Z,14.00
2022-11-01T00:09:40.463Z,12.25
2022-11-01T00:12:07.752Z,12.68
2022-11-01T00:14:34.757Z,12.95
2022-11-01T00:17:02.744Z,12.30
2022-11-01T00:19:29.837Z,12.57
2022-11-01T00:21:57.283Z,11.48
2022-11-01T00:24:25.165Z,12.50
2022-11-01T00:26:52.354Z,11.90
2022-11-01T00:29:21.553Z,11.70
2022-11-01T00:31:48.739Z,11.35
2022-11-01T00:34:18.659Z,8.63
2022-11-01T00:36:46.075Z,9.90
2022-11-01T00:39:14.573Z,9.45
2022-11-01T00:41:42.126Z,9.73
2022-11-01T00:44:09.289Z,9.48
2022-11-01T00:46:39.043Z,9.30
2022-11-01T00:49:05.961Z,10.30
2022-11-01T00:51:33.125Z,9.23
2022-11-01T00:54:00.116Z,10.70
2022-11-01T00:56:30.329Z,10.52
2022-11-01T00:58:57.254Z,11.00
2022-11-01T01:01:24.923Z,11.05
2022-11-01T01:03:52.047Z,11.63
2022-11-01T01:06:21.598Z,11.93
2022-11-01T01:08:50.847Z,11.93
2022-11-01T01:11:18.119Z,12.73
2022-11-01T01:13:45.047Z,12.40
2022-11-01T01:16:14.810Z,11.93
2022-11-01T01:18:41.787Z,11.85
2022-11-01T01:21:09.643Z,10.90
2022-11-01T01:23:37.181Z,11.40
2022-11-01T01:26:09.040Z,11.52
2022-11-01T01:28:41.942Z,11.85
2022-11-01T01:31:13.664Z,10.57
2022-11-01T01:33:40.654Z,11.10
2022-11-01T01:36:08.152Z,10.60
2022-11-01T01:38:35.163Z,11.15
2022-11-01T01:41:21.236Z,10.13
2022-11-01T01:43:48.396Z,10.77
2022-11-01T01:46:15.649Z,10.95
2022-11-01T01:48:45.417Z,10.50
2022-11-01T01:51:17.780Z,11.60
2022-11-01T01:53:51.556Z,11.95
2022-11-01T01:56:24.238Z,12.00
2022-11-01T01:59:04.214Z,13.15
2022-11-01T02:01:34.136Z,13.20
2022-11-01T02:04:03.670Z,12.65
2022-11-01T02:06:33.583Z,12.80
2022-11-01T02:09:05.370Z,12.57
2022-11-01T02:11:33.031Z,11.52
2022-11-01T02:14:01.139Z,12.23
2022-11-01T02:16:43.574Z,12.60
2022-11-01T02:19:45.945Z,13.63
2022-11-01T02:22:50.788Z,13.82
2022-11-01T02:25:21.696Z,12.50
2022-11-01T02:28:20.367Z,13.80
2022-11-01T02:31:21.744Z,14.07
2022-11-01T02:33:56.216Z,12.95
2022-11-01T02:36:33.269Z,13.80
2022-11-01T02:39:09.931Z,14.13
2022-11-01T02:41:47.382Z,13.45
2022-11-01T02:44:23.595Z,13.55
2022-11-01T02:47:02.595Z,13.63
2022-11-01T02:49:53.758Z,14.05
2022-11-01T02:52:26.861Z,12.75
2022-11-01T02:54:59.501Z,14.27
2022-11-01T02:57:35.628Z,13.60
2022-11-01T03:00:21.337Z,13.93
2022-11-01T03:02:54.966Z,14.27
2022-11-01T03:05:30.763Z,13.65
2022-11-01T03:08:05.561Z,13.68
2022-11-01T03:10:42.635Z,13.93
2022-11-01T03:13:17.643Z,13.65
2022-11-01T03:15:57.200Z,13.98
2022-11-01T03:18:32.649Z,13.95
2022-11-01T03:21:18.145Z,15.77
2022-11-01T03:24:02.222Z,15.73
2022-11-01T03:26:33.523Z,14.88
2022-11-01T03:29:07.910Z,14.77
2022-11-01T03:31:38.815Z,14.27
2022-11-01T03:34:13.105Z,15.00
2022-11-01T03:36:47.287Z,15.82
2022-11-01T03:39:51.434Z,15.48
2022-11-01T03:42:21.754Z,14.95
2022-11-01T03:44:54.189Z,15.15
2022-11-01T03:47:21.536Z,15.40
2022-11-01T03:49:48.577Z,14.55
2022-11-01T03:52:15.772Z,14.30
2022-11-01T03:54:42.748Z,14.50
2022-11-01T03:57:10.087Z,15.32
2022-11-01T03:59:37.027Z,15.32
2022-11-01T04:02:04.527Z,15.07
2022-11-01T04:04:31.749Z,17.13
2022-11-01T04:06:59.039Z,16.27
2022-11-01T04:09:26.347Z,15.18
2022-11-01T04:11:53.499Z,14.93
2022-11-01T04:14:39.001Z,17.50
2022-11-01T04:17:24.727Z,18.92
2022-11-01T04:20:10.178Z,17.70
2022-11-01T04:22:40.727Z,18.05
2022-11-01T04:25:07.935Z,17.17
2022-11-01T04:27:35.072Z,17.48
2022-11-01T04:30:02.016Z,18.33
2022-11-01T04:32:29.205Z,18.88
2022-11-01T04:34:56.222Z,18.60
2022-11-01T04:37:23.443Z,18.58
2022-11-01T04:39:52.607Z,19.55
2022-11-01T04:42:19.871Z,18.50
2022-11-01T04:44:49.557Z,20.88
2022-11-01T04:47:16.740Z,21.30
2022-11-01T04:49:43.666Z,19.73
2022-11-01T04:52:10.828Z,21.20
2022-11-01T04:54:38.174Z,17.77
2022-11-01T04:57:05.357Z,18.30
2022-11-01T04:59:32.323Z,18.60
2022-11-01T05:01:59.573Z,18.55
2022-11-01T05:04:26.601Z,17.17
2022-11-01T05:06:53.767Z,17.98
2022-11-01T05:09:20.702Z,18.15
2022-11-01T05:11:47.866Z,17.10
2022-11-01T05:14:14.848Z,18.38
2022-11-01T05:16:42.081Z,17.65
2022-11-01T05:19:11.378Z,15.75
2022-11-01T05:21:38.495Z,16.00
2022-11-01T05:24:05.725Z,15.65
2022-11-01T05:26:32.978Z,15.27
2022-11-01T05:29:02.268Z,15.35
2022-11-01T05:31:39.465Z,15.57
2022-11-01T05:34:08.984Z,16.58
2022-11-01T05:36:36.236Z,15.40
2022-11-01T05:39:03.199Z,14.80
2022-11-01T05:41:30.271Z,15.30
2022-11-01T05:43:57.307Z,14.75
2022-11-01T05:46:24.525Z,15.15
2022-11-01T05:48:51.521Z,15.43
2022-11-01T05:51:18.673Z,14.88
2022-11-01T05:53:45.590Z,14.32
2022-11-01T05:56:13.618Z,15.30
2022-11-01T05:58:41.227Z,15.40
2022-11-01T06:01:09.311Z,15.60
2022-11-01T06:03:36.898Z,14.82
2022-11-01T06:06:04.639Z,15.35
2022-11-01T06:08:31.896Z,15.70
2022-11-01T06:11:06.088Z,15.88
2022-11-01T06:13:34.092Z,17.42
2022-11-01T06:16:06.628Z,18.15
2022-11-01T06:18:38.498Z,19.50
2022-11-01T06:21:06.287Z,20.88
2022-11-01T06:23:33.242Z,20.73
2022-11-01T06:26:04.771Z,22.05
2022-11-01T06:28:32.125Z,22.42
2022-11-01T06:33:32.963Z,21.90
2022-11-01T06:36:02.001Z,23.27
2022-11-01T06:38:29.110Z,25.38
2022-11-01T06:40:58.600Z,24.40
2022-11-01T06:43:28.676Z,23.33
2022-11-01T06:45:58.792Z,24.58
2022-11-01T06:48:25.829Z,24.65
2022-11-01T06:50:55.672Z,22.38
2022-11-01T06:53:24.214Z,23.60
2022-11-01T06:55:53.843Z,21.73
2022-11-01T06:58:23.146Z,21.70
2022-11-01T07:00:50.433Z,20.65
2022-11-01T07:03:17.534Z,20.98
2022-11-01T07:05:44.978Z,19.10
2022-11-01T07:08:13.398Z,21.20
2022-11-01T07:10:44.259Z,20.65
2022-11-01T07:13:15.673Z,21.42
2022-11-01T07:15:43.216Z,20.95
2022-11-01T07:18:10.168Z,22.48
2022-11-01T07:20:44.074Z,21.90
2022-11-01T07:23:16.766Z,22.98
2022-11-01T07:25:44.741Z,23.75
2022-11-01T07:28:12.383Z,23.98
2022-11-01T07:30:39.594Z,23.85
2022-11-01T07:33:07.096Z,26.88
2022-11-01T07:35:37.054Z,23.38
2022-11-01T07:38:07.975Z,22.95
2022-11-01T07:40:40.330Z,25.25
2022-11-01T07:43:07.665Z,26.85
2022-11-01T07:45:35.715Z,26.90
2022-11-01T07:48:10.321Z,29.88
2022-11-01T07:50:39.571Z,27.77
2022-11-01T07:53:12.588Z,30.92
2022-11-01T07:55:40.388Z,27.80
2022-11-01T07:58:10.615Z,25.15
2022-11-01T08:00:41.722Z,24.25
2022-11-01T08:03:12.333Z,24.23
2022-11-01T08:05:40.173Z,21.98
2022-11-01T08:08:10.990Z,21.80
2022-11-01T08:10:38.814Z,20.80
2022-11-01T08:13:22.221Z,19.77
2022-11-01T08:15:51.356Z,21.10
2022-11-01T08:18:22.457Z,21.05
2022-11-01T08:20:50.323Z,22.25
2022-11-01T08:23:17.542Z,20.88
2022-11-01T08:25:45.186Z,20.52
2022-11-01T08:28:20.122Z,22.05
2022-11-01T08:30:50.153Z,21.27
2022-11-01T08:33:19.588Z,22.80
2022-11-01T08:35:50.375Z,23.08
2022-11-01T08:38:18.679Z,22.15
2022-11-01T08:40:45.934Z,21.48
2022-11-01T08:43:12.898Z,20.75
2022-11-01T08:45:40.511Z,20.85
2022-11-01T08:48:09.239Z,20.48
2022-11-01T08:50:39.734Z,20.52
2022-11-01T08:53:12.741Z,21.67
2022-11-01T08:55:40.573Z,22.67
2022-11-01T08:58:08.566Z,21.67
2022-11-01T09:00:38.527Z,22.45
2022-11-01T09:03:05.665Z,22.90
2022-11-01T09:05:33.013Z,23.33
2022-11-01T09:08:01.262Z,23.05
2022-11-01T09:10:31.338Z,23.95
2022-11-01T09:13:01.899Z,23.98
2022-11-01T09:15:29.978Z,23.40
2022-11-01T09:17:56.972Z,23.30
2022-11-01T09:20:31.539Z,22.60
2022-11-01T09:22:59.918Z,21.83
2022-11-01T09:25:27.541Z,22.95
2022-11-01T09:27:56.761Z,21.90
2022-11-01T09:30:24.826Z,22.67
2022-11-01T09:32:54.458Z,23.50
2022-11-01T09:35:21.651Z,23.65
2022-11-01T09:37:48.815Z,23.63
2022-11-01T09:40:16.291Z,24.10
2022-11-01T09:42:47.661Z,23.35
2022-11-01T09:45:22.736Z,19.80
2022-11-01T09:47:56.133Z,13.77
2022-11-01T09:50:37.968Z,15.85
2022-11-01T09:53:09.671Z,15.63
2022-11-01T09:55:45.919Z,16.10
2022-11-01T09:58:34.727Z,14.68
2022-11-01T10:01:11.880Z,14.43
2022-11-01T10:04:16.449Z,14.73
2022-11-01T10:06:48.854Z,12.98
2022-11-01T10:09:46.279Z,13.10
2022-11-01T10:12:33.613Z,13.07
2022-11-01T10:15:17.332Z,13.48
2022-11-01T10:17:56.911Z,13.77
2022-11-01T10:20:32.966Z,14.20
2022-11-01T10:23:01.743Z,12.98
2022-11-01T10:25:32.743Z,13.68
2022-11-01T10:28:15.107Z,13.27
2022-11-01T10:30:48.877Z,13.05
2022-11-01T10:33:29.584Z,16.75
2022-11-01T10:36:07.028Z,12.75
2022-11-01T10:39:10.847Z,12.65
2022-11-01T10:41:43.068Z,15.07
2022-11-01T10:44:36.205Z,15.45
2022-11-01T10:47:07.248Z,13.50
2022-11-01T10:50:04.985Z,13.70
2022-11-01T10:52:44.925Z,16.40
2022-11-01T10:55:31.021Z,14.45
2022-11-01T10:58:06.969Z,14.82
2022-11-01T11:00:40.060Z,14.45
2022-11-01T11:03:24.435Z,14.18
2022-11-01T11:05:54.336Z,14.25
2022-11-01T11:08:25.376Z,13.68
2022-11-01T11:10:55.022Z,14.70
2022-11-01T11:13:25.520Z,15.48
2022-11-01T11:16:01.649Z,16.13
2022-11-01T11:18:36.731Z,15.13
2022-11-01T11:21:14.290Z,14.38
2022-11-01T11:23:46.517Z,13.48
2022-11-01T11:26:17.584Z,13.73
2022-11-01T11:28:56.403Z,13.40
2022-11-01T11:31:30.383Z,13.48
2022-11-01T11:34:02.304Z,13.85
2022-11-01T11:36:42.210Z,14.43
2022-11-01T11:39:30.784Z,14.82
2022-11-01T11:42:10.317Z,13.68
2022-11-01T11:44:50.491Z,12.80
2022-11-01T11:47:26.890Z,12.50
2022-11-01T11:49:56.657Z,11.20
2022-11-01T11:52:38.040Z,7.40
2022-11-01T11:55:24.851Z,6.43
2022-11-01T11:57:56.391Z,6.18
2022-11-01T12:00:28.307Z,6.63
2022-11-01T12:02:56.334Z,5.45
2022-11-01T12:05:28.812Z,5.43
2022-11-01T12:07:58.126Z,5.70
2022-11-01T12:10:36.664Z,5.75
2022-11-01T12:13:25.621Z,5.57
2022-11-01T12:16:16.988Z,6.10
2022-11-01T12:18:52.355Z,6.03
2022-11-01T12:21:23.739Z,6.88
2022-11-01T12:24:00.465Z,7.15
2022-11-01T12:26:31.135Z,6.88
2022-11-01T12:29:54.310Z,6.95
2022-11-01T12:32:29.404Z,6.90
2022-11-01T12:35:03.414Z,7.22
2022-11-01T12:37:57.541Z,7.63
2022-11-01T12:40:30.505Z,7.15
2022-11-01T12:43:11.089Z,7.15
2022-11-01T12:46:00.350Z,7.32
2022-11-01T12:48:36.433Z,7.95
2022-11-01T12:51:40.708Z,8.02
2022-11-01T12:54:16.471Z,8.18
2022-11-01T12:56:43.827Z,8.07
2022-11-01T12:59:15.547Z,7.93
2022-11-01T13:02:00.763Z,8.20
2022-11-01T13:05:05.410Z,8.65
2022-11-01T13:07:43.664Z,8.35
2022-11-01T13:10:25.820Z,8.60
2022-11-01T13:13:29.564Z,8.88
2022-11-01T13:16:18.934Z,8.77
2022-11-01T13:19:23.745Z,9.05
2022-11-01T13:21:56.130Z,9.77
2022-11-01T13:24:40.533Z,8.70
2022-11-01T13:27:26.375Z,8.70
2022-11-01T13:29:59.679Z,9.05
2022-11-01T13:32:45.770Z,9.50
2022-11-01T13:35:33.103Z,9.52
2022-11-01T13:38:25.180Z,9.32
2022-11-01T13:41:19.817Z,9.73
2022-11-01T13:43:53.929Z,10.07
2022-11-01T13:46:35.928Z,9.23
2022-11-01T13:49:09.356Z,9.52
2022-11-01T13:51:47.565Z,9.00
2022-11-01T13:54:14.680Z,8.93
2022-11-01T13:56:50.472Z,8.73
2022-11-01T13:59:48.193Z,9.73
2022-11-01T14:02:28.339Z,8.80
2022-11-01T14:05:10.862Z,8.73
2022-11-01T14:07:59.678Z,9.23
2022-11-01T14:10:33.029Z,8.80
2022-11-01T14:13:10.427Z,9.13
2022-11-01T14:15:55.902Z,10.02
2022-11-01T14:18:23.512Z,8.52
2022-11-01T14:20:52.604Z,9.13
2022-11-01T14:23:27.924Z,9.65
2022-11-01T14:26:23.507Z,9.47
2022-11-01T14:29:02.383Z,9.10
2022-11-01T14:31:34.265Z,9.25
2022-11-01T14:34:24.223Z,9.43
2022-11-01T14:36:54.243Z,9.77
2022-11-01T14:39:38.746Z,9.18
2022-11-01T14:42:12.875Z,9.52
2022-11-01T14:44:49.570Z,10.60
2022-11-01T14:47:27.906Z,10.10
2022-11-01T14:50:00.368Z,11.57
2022-11-01T14:52:41.799Z,10.85
2022-11-01T14:55:29.888Z,10.98
2022-11-01T14:58:23.500Z,10.80
2022-11-01T15:00:55.011Z,10.45
2022-11-01T15:03:23.950Z,11.45
2022-11-01T15:05:53.862Z,13.10
2022-11-01T15:08:29.386Z,14.45
2022-11-01T15:11:02.375Z,13.60
2022-11-01T15:13:36.161Z,13.10
2022-11-01T15:16:18.112Z,13.27
2022-11-01T15:18:51.364Z,30.85
2022-11-01T15:21:25.488Z,28.10
2022-11-01T15:23:58.479Z,17.48
2022-11-01T15:26:32.822Z,15.15
2022-11-01T15:29:04.506Z,14.27
2022-11-01T15:31:34.432Z,13.73
2022-11-01T15:34:20.383Z,13.93
2022-11-01T15:36:47.653Z,12.23
2022-11-01T15:39:18.246Z,12.88
2022-11-01T15:41:46.818Z,13.95
2022-11-01T15:44:23.347Z,14.38
2022-11-01T15:46:55.604Z,13.52
2022-11-01T15:49:56.606Z,18.67
2022-11-01T15:52:45.962Z,15.20
2022-11-01T15:55:32.289Z,15.93
2022-11-01T15:58:05.765Z,19.08
2022-11-01T16:00:43.109Z,17.17
2022-11-01T16:03:18.819Z,16.60
2022-11-01T16:05:56.909Z,17.15
2022-11-01T16:08:35.348Z,16.73
2022-11-01T16:11:03.400Z,15.07
2022-11-01T16:13:33.000Z,17.05
2022-11-01T16:16:10.680Z,17.25
2022-11-01T16:18:40.543Z,17.30
2022-11-01T16:21:23.422Z,17.73
2022-11-01T16:24:09.222Z,17.90
2022-11-01T16:26:59.381Z,16.67
2022-11-01T16:29:53.083Z,15.52
2022-11-01T16:32:34.070Z,14.40
2022-11-01T16:35:35.571Z,15.02
2022-11-01T16:38:04.748Z,14.35
2022-11-01T16:40:34.570Z,15.30
2022-11-01T16:43:01.974Z,15.55
2022-11-01T16:45:30.108Z,14.35
2022-11-01T16:47:58.575Z,13.88
2022-11-01T16:50:28.967Z,15.20
2022-11-01T16:52:57.068Z,13.77
2022-11-01T16:55:29.670Z,14.85
2022-11-01T16:57:58.932Z,15.50
2022-11-01T17:00:28.134Z,16.30
2022-11-01T17:02:57.031Z,16.50
2022-11-01T17:05:31.138Z,16.80
2022-11-01T17:08:00.055Z,17.00
2022-11-01T17:10:31.589Z,19.10
2022-11-01T17:13:03.453Z,18.15
2022-11-01T17:15:37.483Z,17.33
2022-11-01T17:18:28.913Z,21.75
2022-11-01T17:21:00.333Z,22.63
2022-11-01T17:23:29.504Z,23.10
2022-11-01T17:25:58.531Z,19.83
2022-11-01T17:28:26.510Z,20.38
2022-11-01T17:30:55.482Z,18.45
2022-11-01T17:33:25.999Z,21.30
2022-11-01T17:35:55.514Z,20.98
2022-11-01T17:38:30.210Z,20.85
2022-11-01T17:41:04.903Z,20.77
2022-11-01T17:43:36.459Z,20.02
2022-11-01T17:46:19.017Z,21.02
2022-11-01T17:48:46.971Z,22.83
2022-11-01T17:51:17.344Z,22.48
2022-11-01T17:53:45.465Z,20.75
2022-11-01T17:56:14.851Z,22.90
2022-11-01T17:58:49.430Z,21.55
2022-11-01T18:01:25.568Z,22.10
2022-11-01T18:03:54.943Z,23.85
2022-11-01T18:06:26.312Z,23.05
2022-11-01T18:08:54.845Z,25.35
2022-11-01T18:11:40.682Z,32.83
2022-11-01T18:14:29.899Z,35.45
2022-11-01T18:17:19.268Z,36.58
2022-11-01T18:20:26.430Z,37.90
2022-11-01T18:22:58.591Z,32.80
2022-11-01T18:25:34.610Z,36.10
2022-11-01T18:28:20.468Z,36.95
2022-11-01T18:30:59.967Z,34.28
2022-11-01T18:33:57.585Z,32.83
2022-11-01T18:36:46.467Z,28.50
2022-11-01T18:39:25.500Z,28.67
2022-11-01T18:41:54.071Z,28.45
2022-11-01T18:44:23.537Z,27.20
2022-11-01T18:47:04.508Z,27.65
2022-11-01T18:49:33.301Z,26.98
2022-11-01T18:52:02.352Z,29.52
2022-11-01T18:54:33.658Z,29.15
2022-11-01T18:57:17.701Z,31.08
2022-11-01T18:59:50.915Z,27.40
2022-11-01T19:02:28.515Z,26.02
2022-11-01T19:05:21.862Z,25.98
2022-11-01T19:08:20.615Z,22.83
2022-11-01T19:10:52.153Z,24.55
2022-11-01T19:13:35.959Z,26.42
2022-11-01T19:16:10.165Z,25.90
2022-11-01T19:18:43.433Z,24.95
2022-11-01T19:21:21.466Z,25.20
2022-11-01T19:23:58.868Z,24.35
2022-11-01T19:26:37.985Z,23.35
2022-11-01T19:29:16.391Z,23.75
2022-11-01T19:31:49.204Z,22.67
2022-11-01T19:34:21.669Z,24.65
2022-11-01T19:36:53.063Z,23.40
2022-11-01T19:39:28.643Z,24.88
2022-11-01T19:42:07.458Z,24.65
2022-11-01T19:44:36.995Z,24.70
2022-11-01T19:47:40.925Z,24.63
2022-11-01T19:50:27.874Z,23.27
2022-11-01T19:52:59.926Z,23.23
2022-11-01T19:55:39.821Z,24.55
2022-11-01T19:58:25.451Z,24.48
2022-11-01T20:01:18.000Z,23.67
2022-11-01T20:03:53.575Z,23.33
2022-11-01T20:06:29.366Z,24.75
2022-11-01T20:09:05.551Z,23.92
2022-11-01T20:14:04.694Z,30.45
2022-11-01T20:16:36.726Z,28.88
2022-11-01T20:19:05.845Z,30.88
2022-11-01T20:21:35.859Z,31.27
2022-11-01T20:24:05.972Z,26.38
2022-11-01T20:26:34.650Z,24.67
2022-11-01T20:29:03.853Z,24.52
2022-11-01T20:31:33.069Z,22.85
2022-11-01T20:34:02.913Z,24.20
2022-11-01T20:36:31.803Z,24.20
2022-11-01T20:39:00.525Z,24.75
2022-11-01T20:41:30.675Z,24.45
2022-11-01T20:44:00.849Z,23.90
2022-11-01T20:46:29.209Z,22.25
2022-11-01T20:48:57.810Z,23.60
2022-11-01T20:51:27.255Z,22.45
2022-11-01T20:53:56.240Z,22.05
2022-11-01T20:56:28.519Z,23.02
2022-11-01T20:58:57.217Z,21.60
2022-11-01T21:01:25.508Z,21.80
2022-11-01T21:03:54.959Z,21.90
2022-11-01T21:06:26.732Z,22.20
2022-11-01T21:09:05.087Z,20.92
2022-11-01T21:11:45.356Z,24.02
2022-11-01T21:14:21.629Z,24.33
2022-11-01T21:16:50.259Z,24.38
2022-11-01T21:19:23.263Z,22.52
2022-11-01T21:22:00.494Z,24.77
2022-11-01T21:24:34.416Z,23.48
2022-11-01T21:27:14.111Z,22.48
2022-11-01T21:29:45.105Z,22.92
2022-11-01T21:32:27.483Z,22.75
2022-11-01T21:34:55.337Z,23.05
2022-11-01T21:37:24.057Z,24.70
2022-11-01T21:40:04.490Z,22.33
2022-11-01T21:42:36.788Z,23.45
2022-11-01T21:45:31.859Z,23.02
2022-11-01T21:48:21.858Z,23.40
2022-11-01T21:50:49.635Z,22.63
2022-11-01T21:53:16.744Z,23.13
2022-11-01T21:55:43.982Z,22.35
2022-11-01T21:58:13.368Z,22.95
2022-11-01T22:00:40.603Z,23.48
2022-11-01T22:03:07.786Z,23.98
2022-11-01T22:05:38.099Z,23.55
2022-11-01T22:08:07.294Z,21.88
2022-11-01T22:10:37.537Z,23.55
2022-11-01T22:13:06.994Z,23.05
2022-11-01T22:15:34.380Z,21.23
2022-11-01T22:18:01.409Z,22.42
2022-11-01T22:20:30.814Z,20.83
2022-11-01T22:22:57.864Z,20.50
2022-11-01T22:25:25.597Z,21.13
2022-11-01T22:27:52.580Z,20.00
2022-11-01T22:30:19.946Z,20.73
2022-11-01T22:32:47.445Z,23.10
2022-11-01T22:35:14.723Z,21.70
2022-11-01T22:37:44.155Z,22.23
2022-11-01T22:40:12.914Z,21.73
2022-11-01T22:42:40.913Z,21.20
2022-11-01T22:45:15.922Z,20.00
2022-11-01T22:47:43.190Z,21.40
2022-11-01T22:50:14.555Z,19.08
2022-11-01T22:52:45.158Z,21.02
2022-11-01T22:55:15.355Z,22.33
2022-11-01T22:57:47.966Z,19.15
2022-11-01T23:00:23.035Z,21.58
2022-11-01T23:02:59.021Z,20.67
2022-11-01T23:05:26.656Z,19.02
2022-11-01T23:08:00.641Z,21.85
2022-11-01T23:10:37.182Z,20.40
2022-11-01T23:13:29.207Z,20.08
2022-11-01T23:16:02.044Z,20.73
2022-11-01T23:18:33.382Z,21.27
2022-11-01T23:21:05.187Z,21.88
2022-11-01T23:23:35.960Z,21.73
2022-11-01T23:26:03.776Z,23.13
2022-11-01T23:28:37.312Z,22.98
2022-11-01T23:31:05.146Z,23.08
2022-11-01T23:33:40.258Z,22.27
2022-11-01T23:36:15.177Z,23.05
2022-11-01T23:38:48.777Z,21.15
2022-11-01T23:41:21.774Z,24.23
2022-11-01T23:43:51.904Z,24.17
2022-11-01T23:46:19.593Z,21.58
2022-11-01T23:48:51.636Z,22.35
2022-11-01T23:51:23.419Z,22.63
2022-11-01T23:53:54.381Z,22.25
2022-11-01T23:56:22.841Z,22.02
2022-11-01T23:58:55.964Z,22.40
